Decoded Metar for VVCI (CATBI in VIET NAM) (IATA:N/A) | Meteo·Mobile Aviation Weather
aviador You're here:

VVCI Decoded Metar

CATBI in VIET NAM
Report Time2019-07-21 16:30:00
UTC Time2019-07-21 16:59:34
Flight Rules vfr VFR
Wind060° at 03 kt
W.Decomp.*RWY 07: 3.0 kt HW 0.5 kt LCW
Visibility9999 m
Phenomena:N/A
Clouds:N/A
Expected CloudBase > 1,600 ft AGL from Temp-Dew spread
CeilingNone
Temp29°C (ISA +14)
Dew Point25°C (79% RH)
Heat Index34.5°C
QNH1004 hPa
Density Alt2,333 ft
Elevation5 ft
Report Wrong Elevation
Raw Report
METAR VVCI 211630Z 06003KT CAVOK 29/25 Q1004 NOSIG=

Extra information for VVCI:More info

Social comments